Time;durP1;ratioP1;P1;durP2;ratioP2;P2;SDS_P1;SDS_P2;PMS_P1;PMS_P2;Temp;Humidity;BMP_temperature;BMP_pressure;BME280_temperature;BME280_humidity;BME280_pressure;Samples;Min_cycle;Max_cycle;Signal;HPM_P1;HPM_P2
2023/07/16 00:01:04;;;;;;;4.25;2.58;;;24.90;58.80;25.70;100201.00;;;;6267496;22;20284;-54
2023/07/16 00:03:30;;;;;;;2.80;2.50;;;24.90;59.30;25.70;100203.00;;;;6266440;22;20169;-54
2023/07/16 00:05:56;;;;;;;2.95;2.70;;;24.70;59.80;25.70;100206.00;;;;6265522;22;20208;-54
2023/07/16 00:08:22;;;;;;;2.83;2.47;;;24.70;59.80;25.70;100204.00;;;;6266046;22;20613;-54
2023/07/16 00:10:48;;;;;;;2.70;2.30;;;24.70;60.00;25.70;100199.00;;;;6266375;22;20145;-55
2023/07/16 00:13:13;;;;;;;3.35;2.50;;;24.80;59.80;25.70;100208.00;;;;6266277;22;20145;-54
2023/07/16 00:15:39;;;;;;;2.40;2.20;;;24.90;59.40;25.70;100212.00;;;;6265518;22;20169;-54
2023/07/16 00:18:05;;;;;;;2.50;2.30;;;24.80;59.80;25.70;100209.00;;;;6266610;22;20507;-54
2023/07/16 00:20:32;;;;;;;4.13;2.25;;;24.90;59.70;25.70;100212.00;;;;6266379;22;20202;-55
2023/07/16 00:22:58;;;;;;;2.53;2.30;;;24.70;59.80;25.70;100219.00;;;;6265047;22;20160;-54
2023/07/16 00:25:23;;;;;;;2.90;2.58;;;24.60;60.50;25.70;100212.00;;;;6264022;22;20183;-55
2023/07/16 00:27:49;;;;;;;3.05;2.50;;;24.50;60.60;25.60;100227.00;;;;6266343;22;20248;-54
2023/07/16 00:30:15;;;;;;;3.28;2.47;;;24.30;61.80;25.50;100234.00;;;;6266124;22;20703;-54
2023/07/16 00:32:40;;;;;;;3.42;2.58;;;23.90;62.20;25.40;100233.00;;;;6266442;22;20149;-54
2023/07/16 00:35:07;;;;;;;3.85;2.63;;;23.80;63.00;25.30;100230.00;;;;6265854;22;20720;-55
2023/07/16 00:37:34;;;;;;;2.63;2.37;;;23.50;63.60;25.20;100226.00;;;;6266549;22;20659;-55
2023/07/16 00:39:59;;;;;;;3.22;2.60;;;23.30;64.40;25.10;100235.00;;;;6266454;22;20179;-54
2023/07/16 00:42:25;;;;;;;2.50;2.30;;;23.40;64.20;25.00;100230.00;;;;6264583;22;20187;-55
2023/07/16 00:44:51;;;;;;;4.33;2.60;;;23.30;64.80;24.90;100236.00;;;;6263657;22;20521;-55
2023/07/16 00:47:17;;;;;;;3.77;2.50;;;23.30;64.50;24.90;100222.00;;;;6266225;22;20173;-55
2023/07/16 00:49:42;;;;;;;2.50;2.30;;;23.10;64.90;24.80;100244.00;;;;6239116;22;20145;-55
2023/07/16 00:52:13;;;;;;;3.67;2.57;;;23.30;64.70;24.80;100226.00;;;;6266217;22;20145;-55
2023/07/16 00:54:39;;;;;;;2.97;2.20;;;23.30;64.50;24.80;100231.00;;;;6214776;22;20144;-55
2023/07/16 00:57:04;;;;;;;4.00;2.63;;;23.10;64.90;24.70;100228.00;;;;6264270;22;20877;-55
2023/07/16 00:59:30;;;;;;;3.60;2.40;;;23.20;64.90;24.70;100246.00;;;;6239256;22;20153;-54
2023/07/16 01:01:56;;;;;;;2.97;2.27;;;23.20;64.50;24.70;100240.00;;;;6266086;22;20150;-55
2023/07/16 01:04:22;;;;;;;3.80;2.40;;;23.30;64.30;24.70;100248.00;;;;6266211;22;20209;-54
2023/07/16 01:06:52;;;;;;;3.87;2.50;;;23.10;64.60;24.70;100240.00;;;;6265089;22;20522;-54
2023/07/16 01:09:19;;;;;;;4.00;2.40;;;23.10;64.90;24.60;100232.00;;;;6264799;22;20141;-54
2023/07/16 01:11:45;;;;;;;2.73;2.50;;;23.20;65.00;24.60;100241.00;;;;6266569;22;20666;-54
2023/07/16 01:14:13;;;;;;;2.67;2.40;;;23.20;64.70;24.60;100238.00;;;;6266794;22;20161;-54
2023/07/16 01:16:40;;;;;;;4.73;2.50;;;23.40;63.90;24.60;100239.00;;;;6265579;22;20216;-53
2023/07/16 01:19:06;;;;;;;2.77;2.20;;;23.40;64.00;24.60;100242.00;;;;6268455;22;20177;-54
2023/07/16 01:22:11;;;;;;;4.70;2.30;;;23.70;63.10;24.70;100236.00;;;;6277872;22;20149;-54
2023/07/16 01:25:11;;;;;;;3.40;2.40;;;23.60;63.00;24.70;100235.00;;;;6246477;22;20133;-53
2023/07/16 01:28:21;;;;;;;2.53;2.30;;;23.60;63.20;24.70;100191.00;;;;6264459;22;20172;-54
2023/07/16 01:30:46;;;;;;;2.40;2.20;;;23.60;62.90;24.70;100250.00;;;;6266629;22;20149;-54
2023/07/16 01:33:13;;;;;;;2.77;2.43;;;23.60;62.30;24.70;100242.00;;;;6265077;22;20164;-54
2023/07/16 01:35:39;;;;;;;2.90;2.33;;;23.70;62.50;24.70;100244.00;;;;6264545;22;20256;-54
2023/07/16 01:38:05;;;;;;;4.03;2.47;;;23.70;62.20;24.70;100245.00;;;;6242566;22;20141;-54
2023/07/16 01:40:31;;;;;;;3.93;2.10;;;23.80;62.10;24.80;100261.00;;;;6266214;22;20156;-54
2023/07/16 01:42:57;;;;;;;4.23;2.37;;;23.80;61.80;24.80;100260.00;;;;6267381;22;20161;-54
2023/07/16 01:45:23;;;;;;;3.37;2.43;;;23.80;61.70;24.50;100258.00;;;;6266789;22;20613;-54
2023/07/16 01:48:14;;;;;;;2.73;2.20;;;23.50;62.20;24.50;100256.00;;;;6267828;22;20173;-53
2023/07/16 01:50:40;;;;;;;2.67;2.20;;;23.30;62.50;24.60;100261.00;;;;6224647;22;20220;-53
2023/07/16 01:53:06;;;;;;;3.53;2.20;;;23.50;62.70;24.60;100268.00;;;;6215504;22;20179;-54
2023/07/16 01:55:32;;;;;;;3.07;2.47;;;23.40;62.60;24.60;100265.00;;;;6266467;22;20169;-54
2023/07/16 01:57:57;;;;;;;3.37;2.20;;;23.40;62.10;24.60;100277.00;;;;6267640;22;20172;-53
2023/07/16 02:00:23;;;;;;;3.70;2.27;;;23.60;61.90;24.60;100276.00;;;;6267639;22;20153;-54
2023/07/16 02:02:49;;;;;;;3.43;2.30;;;23.40;62.00;24.60;100264.00;;;;6267887;22;20737;-53
2023/07/16 02:05:15;;;;;;;3.73;2.50;;;23.30;61.70;24.60;100273.00;;;;6266657;22;20156;-54
2023/07/16 02:07:41;;;;;;;3.37;2.50;;;23.30;62.00;24.60;100284.00;;;;6267743;22;20192;-54
2023/07/16 02:10:07;;;;;;;4.23;2.50;;;23.50;61.70;24.50;100285.00;;;;6268174;22;20149;-54
2023/07/16 02:12:32;;;;;;;3.33;2.20;;;23.30;62.00;24.50;100283.00;;;;6267778;22;20439;-54
2023/07/16 02:14:58;;;;;;;3.80;2.50;;;23.50;61.60;24.50;100283.00;;;;6266713;22;20141;-54
2023/07/16 02:17:24;;;;;;;4.33;2.20;;;23.60;61.30;24.60;100283.00;;;;6267354;22;20181;-54
2023/07/16 02:19:50;;;;;;;5.53;2.40;;;23.60;60.90;24.60;100295.00;;;;6267707;22;20232;-54
2023/07/16 02:22:15;;;;;;;5.97;2.60;;;23.50;60.80;24.60;100295.00;;;;6267823;22;20149;-54
2023/07/16 02:24:41;;;;;;;3.50;2.10;;;23.50;60.60;24.60;100295.00;;;;6265902;22;20157;-54
2023/07/16 02:27:07;;;;;;;2.70;2.30;;;23.40;60.30;24.50;100283.00;;;;6266639;22;20181;-54
2023/07/16 02:29:33;;;;;;;2.97;2.50;;;23.00;61.10;24.40;100294.00;;;;6267435;22;20210;-54
2023/07/16 02:31:59;;;;;;;6.80;2.40;;;23.00;61.70;24.40;100300.00;;;;6267934;22;20485;-54
2023/07/16 02:34:24;;;;;;;5.50;2.80;;;23.00;61.40;24.40;100306.00;;;;6267428;22;20818;-54
2023/07/16 02:36:50;;;;;;;3.23;2.20;;;23.00;61.20;24.40;100307.00;;;;6265144;22;20625;-54
2023/07/16 02:39:16;;;;;;;3.50;2.30;;;23.30;60.40;24.40;100312.00;;;;6267139;22;20149;-54
2023/07/16 02:41:41;;;;;;;3.03;2.17;;;23.20;60.30;24.40;100319.00;;;;6267390;22;20152;-54
2023/07/16 02:44:08;;;;;;;5.07;2.50;;;23.20;60.30;24.30;100314.00;;;;6267460;22;20160;-55
2023/07/16 02:46:34;;;;;;;3.47;2.33;;;23.10;59.60;24.30;100320.00;;;;6266498;22;20173;-54
2023/07/16 02:49:00;;;;;;;3.17;2.40;;;22.90;59.90;24.20;100314.00;;;;6267149;22;20168;-54
2023/07/16 02:51:26;;;;;;;4.03;2.43;;;23.10;60.20;24.30;100326.00;;;;6266047;22;20141;-54
2023/07/16 02:53:52;;;;;;;3.23;2.20;;;23.20;59.40;24.30;100326.00;;;;6266803;22;20267;-54
2023/07/16 02:56:17;;;;;;;3.00;2.30;;;23.10;59.70;24.20;100320.00;;;;6266527;22;20173;-54
2023/07/16 02:58:43;;;;;;;5.10;2.53;;;23.00;59.70;24.20;100332.00;;;;6267255;22;20655;-55
2023/07/16 03:01:09;;;;;;;4.20;2.47;;;22.90;59.50;24.20;100348.00;;;;6267818;22;20163;-54
2023/07/16 03:03:35;;;;;;;3.90;2.50;;;22.70;59.40;24.10;100347.00;;;;6267473;22;20141;-53
2023/07/16 03:06:00;;;;;;;3.27;2.33;;;22.80;60.00;24.10;100347.00;;;;6268245;22;20353;-53
2023/07/16 03:08:29;;;;;;;3.87;2.50;;;23.00;58.90;24.10;100342.00;;;;6268336;22;20184;-53
2023/07/16 03:10:56;;;;;;;4.27;2.40;;;22.80;59.30;24.10;100354.00;;;;6268549;22;20145;-54
2023/07/16 03:13:22;;;;;;;3.63;2.20;;;22.90;59.20;24.10;100351.00;;;;6269083;22;20228;-53
2023/07/16 03:15:47;;;;;;;3.03;2.20;;;22.90;58.90;24.00;100343.00;;;;6267472;22;20171;-54
2023/07/16 03:18:13;;;;;;;4.83;2.43;;;23.00;59.10;24.00;100355.00;;;;6268422;22;20195;-54
2023/07/16 03:20:39;;;;;;;3.57;2.50;;;22.80;58.50;24.10;100362.00;;;;6268654;22;20199;-54
2023/07/16 03:23:05;;;;;;;3.00;2.27;;;23.10;59.00;24.10;100358.00;;;;6268534;22;20149;-54
2023/07/16 03:25:31;;;;;;;3.70;2.40;;;23.30;58.20;24.10;100368.00;;;;6268325;22;20179;-55
2023/07/16 03:27:57;;;;;;;7.63;2.53;;;23.30;57.80;24.10;100378.00;;;;6268901;22;20203;-54
2023/07/16 03:30:22;;;;;;;3.17;2.13;;;23.10;57.60;24.10;100367.00;;;;6268114;22;20141;-55
2023/07/16 03:32:48;;;;;;;5.20;2.50;;;23.10;57.50;24.10;100374.00;;;;6273900;22;20597;-56
2023/07/16 03:35:14;;;;;;;4.23;2.40;;;23.30;57.30;24.10;100381.00;;;;6266391;22;20156;-55
2023/07/16 03:37:39;;;;;;;3.93;2.00;;;23.10;57.20;24.10;100377.00;;;;6267357;22;20628;-56
2023/07/16 03:40:18;;;;;;;3.57;2.50;;;23.30;57.20;24.10;100383.00;;;;6268801;22;20708;-56
2023/07/16 03:42:44;;;;;;;4.67;2.30;;;23.10;57.40;24.10;100391.00;;;;6267455;22;20148;-56
2023/07/16 03:45:10;;;;;;;3.60;2.33;;;23.40;57.30;24.10;100398.00;;;;6267205;22;20623;-56
2023/07/16 03:47:36;;;;;;;6.13;2.47;;;23.10;57.10;24.10;100404.00;;;;6273800;22;20255;-55
2023/07/16 03:50:02;;;;;;;3.80;2.37;;;23.00;56.70;24.00;100402.00;;;;6271058;22;20176;-55
2023/07/16 03:52:28;;;;;;;3.40;2.40;;;22.80;56.90;24.00;100402.00;;;;6267047;22;20145;-55
2023/07/16 03:54:54;;;;;;;3.70;2.40;;;22.80;57.30;24.00;100403.00;;;;6268521;22;20492;-56
2023/07/16 03:57:20;;;;;;;3.57;2.40;;;22.80;56.50;24.00;100421.00;;;;6268693;22;20676;-55
2023/07/16 03:59:46;;;;;;;5.47;2.57;;;22.60;56.50;23.90;100404.00;;;;6268690;22;20149;-55
2023/07/16 04:02:11;;;;;;;3.53;2.37;;;22.50;57.60;23.90;100410.00;;;;6266840;22;20156;-56
2023/07/16 04:04:37;;;;;;;4.80;2.50;;;22.90;57.50;23.90;100414.00;;;;6267744;22;20156;-56
2023/07/16 04:07:03;;;;;;;3.77;2.67;;;23.00;56.70;23.90;100426.00;;;;6268010;22;20177;-56
2023/07/16 04:09:29;;;;;;;3.17;2.40;;;22.90;56.00;23.90;100421.00;;;;6268866;22;20642;-55
2023/07/16 04:11:54;;;;;;;4.73;2.73;;;22.70;56.00;23.80;100420.00;;;;6268783;22;20230;-55
2023/07/16 04:14:20;;;;;;;4.40;2.70;;;22.70;56.20;23.80;100432.00;;;;6268675;22;20147;-55
2023/07/16 04:16:46;;;;;;;6.70;2.70;;;22.80;55.80;23.80;100433.00;;;;6261895;22;20180;-55
2023/07/16 04:19:12;;;;;;;4.23;2.50;;;22.60;56.00;23.70;100432.00;;;;6267060;22;20149;-56
2023/07/16 04:21:38;;;;;;;3.60;2.67;;;22.10;56.40;23.70;100432.00;;;;6267839;22;20180;-55
2023/07/16 04:24:05;;;;;;;3.63;2.40;;;22.30;57.20;23.60;100429.00;;;;6268065;22;20149;-56
2023/07/16 04:26:31;;;;;;;4.30;2.60;;;22.30;57.60;23.60;100442.00;;;;6266846;22;20172;-56
2023/07/16 04:28:57;;;;;;;3.90;2.63;;;22.50;56.80;23.60;100437.00;;;;6267698;22;20198;-55
2023/07/16 04:31:23;;;;;;;4.10;2.60;;;22.80;56.40;23.70;100441.00;;;;6265207;22;20153;-55
2023/07/16 04:33:49;;;;;;;4.60;2.43;;;22.60;55.80;23.60;100447.00;;;;6266695;22;20140;-55
2023/07/16 04:36:15;;;;;;;3.47;2.53;;;22.30;56.90;23.60;100442.00;;;;6264117;22;20501;-55
2023/07/16 04:38:41;;;;;;;5.73;2.70;;;22.40;56.60;23.60;100445.00;;;;6267961;22;20175;-54
2023/07/16 04:41:06;;;;;;;3.27;2.50;;;22.50;56.60;23.60;100439.00;;;;6268075;22;20149;-56
2023/07/16 04:43:32;;;;;;;4.47;2.70;;;22.30;56.40;23.50;100445.00;;;;6267821;22;20145;-57
2023/07/16 04:45:58;;;;;;;7.00;2.90;;;22.10;57.10;23.50;100440.00;;;;6266810;22;20172;-56
2023/07/16 04:48:25;;;;;;;4.77;2.93;;;22.40;57.10;23.50;100454.00;;;;6267472;22;20169;-54
2023/07/16 04:50:52;;;;;;;6.30;2.80;;;22.20;56.40;23.40;100456.00;;;;6265961;22;20477;-55
2023/07/16 04:53:18;;;;;;;4.63;2.80;;;21.80;57.10;23.40;100451.00;;;;6268083;22;20141;-55
2023/07/16 04:55:44;;;;;;;3.60;2.73;;;21.70;57.80;23.30;100461.00;;;;6266551;22;20579;-55
2023/07/16 04:58:11;;;;;;;5.00;3.27;;;21.70;57.50;23.20;100435.00;;;;6267696;22;20172;-55
2023/07/16 05:00:37;;;;;;;6.17;2.77;;;21.50;58.00;23.10;100452.00;;;;6240597;22;20149;-55
2023/07/16 05:03:03;;;;;;;5.63;2.93;;;21.40;57.90;23.10;100463.00;;;;6267173;22;20153;-55
2023/07/16 05:05:28;;;;;;;4.47;3.00;;;21.40;58.20;23.00;100470.00;;;;6266421;22;20172;-55
2023/07/16 05:07:54;;;;;;;4.83;2.93;;;21.30;58.60;22.90;100463.00;;;;6267694;22;20176;-56
2023/07/16 05:10:20;;;;;;;4.43;2.97;;;21.10;59.10;22.90;100468.00;;;;6268093;22;20216;-56
2023/07/16 05:12:46;;;;;;;3.53;2.80;;;21.10;60.00;22.80;100477.00;;;;6268199;22;20198;-55
2023/07/16 05:15:11;;;;;;;4.37;2.97;;;21.30;59.60;22.80;100480.00;;;;6264861;22;20758;-54
2023/07/16 05:17:37;;;;;;;5.17;3.20;;;21.30;59.20;22.90;100491.00;;;;6269222;22;20168;-54
2023/07/16 05:20:04;;;;;;;5.27;2.80;;;21.30;58.90;22.70;100488.00;;;;6268198;22;20657;-55
2023/07/16 05:22:30;;;;;;;4.83;3.20;;;21.10;59.70;22.70;100491.00;;;;6269720;22;20231;-54
2023/07/16 05:24:55;;;;;;;5.43;3.20;;;21.10;59.80;22.70;100422.00;;;;6268735;22;20585;-55
2023/07/16 05:27:21;;;;;;;5.50;2.90;;;21.10;60.00;22.60;100499.00;;;;6267766;22;20191;-59
2023/07/16 05:29:48;;;;;;;5.63;3.37;;;21.10;59.40;22.60;100499.00;;;;6269854;22;20749;-56
2023/07/16 05:32:13;;;;;;;5.00;3.40;;;21.00;59.40;22.50;100501.00;;;;6267574;22;20650;-56
2023/07/16 05:34:39;;;;;;;5.53;3.33;;;21.00;59.40;22.50;100488.00;;;;6273231;22;20145;-55
2023/07/16 05:37:05;;;;;;;5.60;3.50;;;20.90;59.60;22.50;100507.00;;;;6272418;22;20200;-55
2023/07/16 05:39:31;;;;;;;4.63;3.13;;;21.00;59.20;22.50;100499.00;;;;6269319;22;20646;-55
2023/07/16 05:41:57;;;;;;;4.73;3.13;;;21.20;59.30;22.50;100503.00;;;;6268001;22;20152;-55
2023/07/16 05:44:22;;;;;;;4.93;3.40;;;21.30;58.70;22.50;100504.00;;;;6269966;22;20246;-55
2023/07/16 05:46:48;;;;;;;5.47;3.47;;;21.30;58.90;22.60;100504.00;;;;6265638;22;20183;-58
2023/07/16 05:49:14;;;;;;;4.57;3.10;;;21.30;58.70;22.60;100516.00;;;;6273988;22;20141;-55
2023/07/16 05:51:39;;;;;;;5.70;3.20;;;21.30;58.70;22.60;100516.00;;;;6275099;22;20156;-55
2023/07/16 05:54:06;;;;;;;3.23;2.93;;;21.30;59.10;22.50;100512.00;;;;6269290;22;20156;-55
2023/07/16 05:56:32;;;;;;;4.13;3.00;;;21.30;59.10;22.60;100525.00;;;;6268022;22;20213;-55
2023/07/16 05:58:57;;;;;;;4.43;3.33;;;21.50;58.60;22.60;100524.00;;;;6267831;22;20199;-55
2023/07/16 06:01:23;;;;;;;7.77;3.50;;;21.40;58.50;22.60;100536.00;;;;6268535;22;20145;-55
2023/07/16 06:03:49;;;;;;;5.10;3.20;;;21.20;58.30;22.50;100519.00;;;;6269264;22;20165;-55
2023/07/16 06:06:15;;;;;;;6.23;3.60;;;21.20;58.70;22.50;100525.00;;;;6267441;22;20603;-55
2023/07/16 06:08:41;;;;;;;6.13;3.60;;;21.00;58.30;22.40;100520.00;;;;6268554;22;20212;-55
2023/07/16 06:11:06;;;;;;;5.37;2.97;;;20.90;58.80;22.30;100515.00;;;;6269645;22;20195;-55
2023/07/16 06:13:32;;;;;;;7.33;3.90;;;20.80;59.10;22.30;100534.00;;;;6269171;22;20142;-54
2023/07/16 06:15:58;;;;;;;5.17;3.73;;;20.90;58.50;22.30;100521.00;;;;6267394;22;20184;-54
2023/07/16 06:18:24;;;;;;;4.37;3.97;;;20.90;57.80;22.20;100513.00;;;;6268930;22;20217;-55
2023/07/16 06:20:51;;;;;;;5.83;4.13;;;20.90;57.80;22.30;100506.00;;;;6268786;22;20151;-56
2023/07/16 06:23:17;;;;;;;5.07;4.03;;;21.00;58.30;22.30;100511.00;;;;6269482;22;20156;-55
2023/07/16 06:25:44;;;;;;;4.90;3.70;;;21.00;58.10;22.30;100503.00;;;;6268053;22;20238;-55
2023/07/16 06:28:11;;;;;;;6.80;4.23;;;21.00;57.70;22.30;100510.00;;;;6268931;22;20520;-55
2023/07/16 06:30:37;;;;;;;5.50;3.80;;;20.90;57.50;22.20;100519.00;;;;6268218;22;20148;-56
2023/07/16 06:33:03;;;;;;;7.33;4.17;;;20.80;57.50;22.10;100521.00;;;;6269077;22;20152;-55
2023/07/16 06:35:28;;;;;;;5.67;4.17;;;20.70;57.50;22.10;100526.00;;;;6266713;22;20146;-56
2023/07/16 06:37:54;;;;;;;5.40;3.97;;;20.80;57.40;22.10;100521.00;;;;6269024;22;20149;-55
2023/07/16 06:40:20;;;;;;;7.17;4.50;;;20.90;57.50;22.20;100531.00;;;;6269336;22;20149;-55
2023/07/16 06:42:46;;;;;;;7.30;4.40;;;21.00;56.40;22.20;100528.00;;;;6269053;22;20651;-56
2023/07/16 06:45:11;;;;;;;6.90;4.40;;;21.00;56.80;22.20;100532.00;;;;6266410;22;20163;-56
2023/07/16 06:47:37;;;;;;;6.00;4.63;;;20.90;56.50;22.10;100536.00;;;;6267521;22;20180;-56
2023/07/16 06:50:03;;;;;;;6.83;4.63;;;20.70;56.60;22.10;100534.00;;;;6267502;22;20144;-55
2023/07/16 06:52:30;;;;;;;6.37;4.10;;;20.70;56.60;22.00;100541.00;;;;6269210;22;20216;-54
2023/07/16 06:54:56;;;;;;;7.30;4.37;;;20.60;57.30;22.00;100550.00;;;;6267507;22;20148;-56
2023/07/16 06:57:23;;;;;;;6.70;4.83;;;20.80;57.10;22.00;100550.00;;;;6269175;22;20172;-54
2023/07/16 06:59:49;;;;;;;7.33;4.57;;;20.70;55.90;22.00;100544.00;;;;6268844;22;20151;-54
2023/07/16 07:02:16;;;;;;;7.47;5.33;;;20.60;55.70;21.90;100558.00;;;;6268247;22;20229;-56
2023/07/16 07:04:42;;;;;;;10.77;4.90;;;20.60;56.20;21.90;100546.00;;;;6266052;22;20820;-55
2023/07/16 07:07:08;;;;;;;7.77;4.97;;;20.60;55.90;21.90;100539.00;;;;6267259;22;20222;-55
2023/07/16 07:09:34;;;;;;;6.80;4.90;;;20.60;55.20;21.90;100545.00;;;;6268646;22;20226;-55
2023/07/16 07:11:59;;;;;;;6.33;4.97;;;20.70;55.20;21.80;100540.00;;;;6267682;22;20202;-55
2023/07/16 07:14:25;;;;;;;6.17;4.73;;;20.60;55.20;21.90;100539.00;;;;6268269;22;20252;-55
2023/07/16 07:16:51;;;;;;;6.77;4.83;;;20.70;55.50;21.90;100542.00;;;;6262844;22;20722;-56
2023/07/16 07:19:17;;;;;;;8.40;4.90;;;20.70;55.70;21.90;100551.00;;;;6268715;22;20659;-57
2023/07/16 07:21:42;;;;;;;5.97;4.70;;;20.70;55.10;21.90;100541.00;;;;6268289;22;20599;-56
2023/07/16 07:24:08;;;;;;;6.33;4.67;;;20.70;55.50;21.90;100545.00;;;;6268303;22;20149;-58
2023/07/16 07:26:34;;;;;;;6.37;4.60;;;20.80;55.40;21.90;100554.00;;;;6266927;22;20172;-58
2023/07/16 07:28:59;;;;;;;8.33;5.03;;;20.90;54.80;21.90;100547.00;;;;6268475;22;20142;-57
2023/07/16 07:31:25;;;;;;;5.83;4.57;;;20.80;53.90;22.00;100565.00;;;;6267939;22;20147;-57
2023/07/16 07:33:51;;;;;;;5.77;4.47;;;20.80;53.30;21.90;100570.00;;;;6268976;22;20156;-56
2023/07/16 07:36:16;;;;;;;8.23;4.90;;;20.80;53.00;21.90;100549.00;;;;6269142;22;20165;-57
2023/07/16 07:38:42;;;;;;;6.60;4.80;;;20.80;53.10;21.90;100555.00;;;;6273127;22;20156;-57
2023/07/16 07:41:08;;;;;;;5.77;4.57;;;20.90;53.20;22.00;100553.00;;;;6268759;22;20180;-56
2023/07/16 07:43:34;;;;;;;6.47;4.90;;;21.00;53.80;22.00;100541.00;;;;6268573;22;20485;-57
2023/07/16 07:45:59;;;;;;;6.00;4.93;;;21.00;53.40;22.00;100560.00;;;;6267803;22;20168;-57
2023/07/16 07:48:25;;;;;;;6.80;5.20;;;20.90;52.80;22.00;100563.00;;;;6269125;22;20176;-57
2023/07/16 07:50:51;;;;;;;6.97;4.93;;;20.90;52.60;22.00;100545.00;;;;6269864;22;20137;-57
2023/07/16 07:53:18;;;;;;;7.57;4.77;;;21.00;53.20;22.00;100554.00;;;;6274962;22;20144;-57
2023/07/16 07:55:45;;;;;;;8.00;4.80;;;21.00;52.80;22.00;100566.00;;;;6268171;22;20171;-56
2023/07/16 07:58:10;;;;;;;6.47;4.87;;;21.00;52.40;22.00;100565.00;;;;6268311;22;20621;-56
2023/07/16 08:00:36;;;;;;;5.90;4.63;;;20.90;52.40;22.00;100569.00;;;;6268461;22;20152;-56
2023/07/16 08:03:02;;;;;;;8.33;4.83;;;20.90;52.50;22.00;100558.00;;;;6266985;22;20156;-56
2023/07/16 08:05:28;;;;;;;8.07;4.83;;;20.90;52.50;22.00;100557.00;;;;6267279;22;20160;-57
2023/07/16 08:07:55;;;;;;;6.40;4.87;;;20.90;52.30;22.00;100554.00;;;;6268723;22;20186;-57
2023/07/16 08:10:21;;;;;;;6.87;4.50;;;21.00;52.30;22.00;100555.00;;;;6268803;22;20148;-57
2023/07/16 08:12:47;;;;;;;7.60;4.90;;;20.90;52.30;22.00;100563.00;;;;6268605;22;20537;-57
2023/07/16 08:15:15;;;;;;;5.73;4.60;;;20.90;52.50;22.00;100564.00;;;;6267684;22;20203;-56
2023/07/16 08:17:42;;;;;;;6.67;4.57;;;21.00;52.70;22.00;100567.00;;;;6269153;22;20166;-57
2023/07/16 08:20:09;;;;;;;6.83;5.20;;;21.00;52.90;22.00;100566.00;;;;6266972;22;20152;-57
2023/07/16 08:22:35;;;;;;;7.30;4.90;;;21.10;52.50;22.00;100588.00;;;;6268764;22;20195;-57
2023/07/16 08:25:03;;;;;;;7.70;4.90;;;21.10;51.90;22.10;100574.00;;;;6267356;22;20156;-57
2023/07/16 08:27:29;;;;;;;5.83;4.60;;;21.20;52.00;22.10;100570.00;;;;6268483;22;20189;-56
2023/07/16 08:29:55;;;;;;;6.33;4.83;;;21.20;51.90;22.20;100565.00;;;;6268322;22;20220;-56
2023/07/16 08:32:21;;;;;;;5.73;4.80;;;21.20;52.10;22.20;100563.00;;;;6268702;22;20826;-56
2023/07/16 08:34:47;;;;;;;6.70;4.57;;;21.30;51.50;22.20;100564.00;;;;6267844;22;20145;-57
2023/07/16 08:37:13;;;;;;;5.23;4.30;;;21.40;52.10;22.30;100568.00;;;;6265700;22;20237;-57
2023/07/16 08:39:39;;;;;;;6.00;4.40;;;21.30;51.40;22.30;100570.00;;;;6268618;22;20173;-57
2023/07/16 08:42:06;;;;;;;5.60;4.50;;;21.30;50.80;22.30;100559.00;;;;6267553;22;20176;-57
2023/07/16 08:44:31;;;;;;;5.83;4.43;;;21.30;51.20;22.30;100560.00;;;;6263215;22;20157;-56
2023/07/16 08:46:57;;;;;;;6.90;4.63;;;21.40;51.40;22.30;100564.00;;;;6266504;22;20238;-56
2023/07/16 08:49:23;;;;;;;6.57;4.77;;;21.50;52.10;22.40;100573.00;;;;6267636;22;20177;-56
2023/07/16 08:51:49;;;;;;;8.53;4.70;;;21.60;52.00;22.40;100570.00;;;;6268576;22;20152;-56
2023/07/16 08:54:17;;;;;;;6.00;4.57;;;21.70;52.10;22.50;100580.00;;;;6269777;22;20145;-56
2023/07/16 08:56:44;;;;;;;8.00;4.93;;;21.70;51.60;22.50;100571.00;;;;6268924;22;20375;-56
2023/07/16 08:59:10;;;;;;;6.57;4.63;;;21.80;51.30;22.60;100575.00;;;;6267851;22;20151;-55
2023/07/16 09:01:37;;;;;;;4.87;4.43;;;21.60;49.30;22.50;100579.00;;;;6269867;22;20148;-55
2023/07/16 09:04:03;;;;;;;5.57;4.60;;;21.60;49.90;22.50;100574.00;;;;6269398;22;20149;-55
2023/07/16 09:06:29;;;;;;;7.10;4.63;;;21.60;50.00;22.50;100580.00;;;;6267138;22;20169;-55
2023/07/16 09:08:55;;;;;;;6.27;4.40;;;21.60;50.20;22.50;100574.00;;;;6270005;22;20601;-55
2023/07/16 09:11:22;;;;;;;6.20;4.40;;;21.60;50.00;22.60;100572.00;;;;6269761;22;20153;-57
2023/07/16 09:13:50;;;;;;;6.97;4.80;;;21.70;50.40;22.60;100575.00;;;;6269351;22;20157;-57
2023/07/16 09:16:20;;;;;;;5.43;4.43;;;21.80;50.40;22.60;100578.00;;;;6268346;22;20306;-55
2023/07/16 09:18:46;;;;;;;6.97;4.70;;;21.80;49.70;22.60;100582.00;;;;6269459;22;20267;-56
2023/07/16 09:21:12;;;;;;;7.07;4.90;;;21.80;49.90;22.40;100589.00;;;;6269150;22;20177;-56
2023/07/16 09:23:38;;;;;;;5.77;4.57;;;21.80;50.00;22.70;100573.00;;;;6267725;22;20641;-58
2023/07/16 09:26:03;;;;;;;5.27;4.57;;;21.80;50.30;22.70;100578.00;;;;6268583;22;20517;-58
2023/07/16 09:28:33;;;;;;;8.43;4.70;;;21.80;50.10;22.70;100594.00;;;;6268809;22;20404;-57
2023/07/16 09:31:07;;;;;;;5.40;4.40;;;21.90;50.20;22.70;100580.00;;;;6269661;22;20824;-57
2023/07/16 09:33:33;;;;;;;7.30;4.50;;;21.90;49.70;22.70;100589.00;;;;6268920;22;20133;-56
2023/07/16 09:35:59;;;;;;;6.77;4.70;;;21.90;50.00;22.80;100587.00;;;;6265145;22;20594;-56
2023/07/16 09:38:26;;;;;;;5.07;4.10;;;21.90;49.60;22.80;100580.00;;;;6239923;22;20176;-55
2023/07/16 09:40:52;;;;;;;6.13;4.23;;;22.00;49.70;22.80;100593.00;;;;6188039;22;20153;-56
2023/07/16 09:43:18;;;;;;;5.03;4.37;;;22.00;49.80;22.80;100599.00;;;;6239104;22;20153;-56
2023/07/16 09:45:44;;;;;;;5.27;4.33;;;22.00;49.30;22.80;100575.00;;;;6241980;22;20219;-55
2023/07/16 09:48:10;;;;;;;6.17;4.50;;;21.90;49.10;22.80;100598.00;;;;6266769;22;20180;-56
2023/07/16 09:50:36;;;;;;;4.90;4.27;;;22.00;49.00;22.80;100603.00;;;;6266641;22;20145;-56
2023/07/16 09:53:04;;;;;;;5.83;4.03;;;21.90;49.10;22.80;100581.00;;;;6254728;22;20181;-62
2023/07/16 09:55:33;;;;;;;6.97;4.33;;;21.90;49.30;22.80;100599.00;;;;6265908;22;20144;-56
2023/07/16 09:58:00;;;;;;;5.23;4.07;;;21.90;49.20;22.80;100596.00;;;;6254738;22;20180;-56
2023/07/16 10:00:26;;;;;;;5.53;4.20;;;21.90;49.70;22.80;100624.00;;;;6216991;22;20202;-56
2023/07/16 10:02:52;;;;;;;4.40;4.00;;;22.00;50.00;22.80;100606.00;;;;6214330;22;20161;-56
2023/07/16 10:05:24;;;;;;;5.07;4.00;;;22.10;49.70;22.80;100612.00;;;;6265741;22;20179;-57
2023/07/16 10:07:59;;;;;;;5.13;4.13;;;22.10;49.70;22.90;100607.00;;;;6269340;22;20234;-56
2023/07/16 10:10:42;;;;;;;6.13;4.20;;;22.10;49.80;22.90;100598.00;;;;6242708;22;20252;-55
2023/07/16 10:13:11;;;;;;;6.17;3.90;;;22.10;50.30;22.90;100603.00;;;;6267937;22;20156;-59
2023/07/16 10:15:37;;;;;;;4.50;3.73;;;22.10;49.70;22.90;100595.00;;;;6266153;22;20161;-55
2023/07/16 10:18:03;;;;;;;4.40;3.67;;;22.10;49.70;22.90;100598.00;;;;6269050;22;20153;-55
2023/07/16 10:20:33;;;;;;;6.80;3.60;;;22.10;49.50;22.90;100609.00;;;;6268873;22;20148;-56
2023/07/16 10:23:09;;;;;;;3.77;3.43;;;22.10;49.60;23.00;100606.00;;;;6268493;22;20134;-57
2023/07/16 10:25:35;;;;;;;5.27;3.60;;;22.10;49.80;23.00;100607.00;;;;6266707;22;20164;-56
2023/07/16 10:28:01;;;;;;;7.40;3.70;;;22.20;49.80;23.00;100604.00;;;;6268466;22;20169;-55
2023/07/16 10:30:26;;;;;;;4.73;3.80;;;22.20;49.20;23.00;100604.00;;;;6268620;22;20489;-56
2023/07/16 10:32:53;;;;;;;6.20;3.60;;;22.20;49.10;23.00;100606.00;;;;6261265;22;20276;-56
2023/07/16 10:35:19;;;;;;;4.30;3.40;;;22.20;49.20;23.00;100603.00;;;;6265443;22;20322;-56
2023/07/16 10:37:44;;;;;;;6.70;3.50;;;22.20;49.40;22.80;100605.00;;;;6267079;22;20181;-55
2023/07/16 10:40:12;;;;;;;4.20;3.60;;;22.30;49.00;23.10;100609.00;;;;6267887;22;20279;-55
2023/07/16 10:42:39;;;;;;;6.90;3.53;;;22.40;49.40;23.10;100614.00;;;;6265101;22;20149;-55
2023/07/16 10:45:05;;;;;;;3.70;3.30;;;22.50;49.50;23.20;100615.00;;;;6215553;22;20367;-56